Time;durP1;ratioP1;P1;durP2;ratioP2;P2;SDS_P1;SDS_P2;PMS_P1;PMS_P2;Temp;Humidity;BMP_temperature;BMP_pressure;BME280_temperature;BME280_humidity;BME280_pressure;Samples;Min_cycle;Max_cycle;Signal;HPM_P1;HPM_P2
2023/07/03 00:00:17;;;;;;;2.05;1.33;;;;;;;;;;5017164;28;20531;-60
2023/07/03 00:03:13;;;;;;;4.50;1.60;;;;;;;;;;5015814;28;20413;-62
2023/07/03 00:05:44;;;;;;;3.42;2.63;;;;;;;;;;5015230;28;21047;-60
2023/07/03 00:08:12;;;;;;;4.10;1.98;;;;;;;;;;5018739;28;20439;-60
2023/07/03 00:10:41;;;;;;;4.90;2.00;;;;;;;;;;5017250;28;20828;-60
2023/07/03 00:13:09;;;;;;;9.02;1.67;;;;;;;;;;5015735;28;20426;-60
2023/07/03 00:15:37;;;;;;;2.42;2.22;;;;;;;;;;5014904;28;20447;-60
2023/07/03 00:18:08;;;;;;;3.20;1.92;;;;;;;;;;5011290;28;20944;-61
2023/07/03 00:20:35;;;;;;;4.55;1.90;;;;;;;;;;5014879;28;20528;-60
2023/07/03 00:23:07;;;;;;;3.42;1.83;;;;;;;;;;5017725;28;20589;-60
2023/07/03 00:25:38;;;;;;;8.77;1.70;;;;;;;;;;5014568;28;20439;-60
2023/07/03 00:28:05;;;;;;;3.17;2.03;;;;;;;;;;5013023;28;20559;-60
2023/07/03 00:30:34;;;;;;;3.55;2.22;;;;;;;;;;5014883;28;21025;-63
2023/07/03 00:33:01;;;;;;;1.63;1.45;;;;;;;;;;5013917;28;20823;-61
2023/07/03 00:35:28;;;;;;;2.03;1.58;;;;;;;;;;5001247;28;20956;-60
2023/07/03 00:37:59;;;;;;;4.28;2.17;;;;;;;;;;5012371;28;20503;-60
2023/07/03 00:40:26;;;;;;;1.90;1.60;;;;;;;;;;5015253;28;20497;-60
2023/07/03 00:43:00;;;;;;;4.18;2.28;;;;;;;;;;5011034;28;20481;-60
2023/07/03 00:45:27;;;;;;;3.80;2.53;;;;;;;;;;5014930;28;20526;-61
2023/07/03 00:48:18;;;;;;;3.33;1.63;;;;;;;;;;5013443;28;20418;-61
2023/07/03 00:50:48;;;;;;;7.57;1.80;;;;;;;;;;5017554;28;20489;-60
2023/07/03 00:53:15;;;;;;;3.35;1.92;;;;;;;;;;4999622;28;20445;-60
2023/07/03 00:55:43;;;;;;;11.00;1.88;;;;;;;;;;5008196;28;21139;-60
2023/07/03 00:58:10;;;;;;;8.77;2.47;;;;;;;;;;5012199;28;21435;-60
2023/07/03 01:00:45;;;;;;;2.30;1.65;;;;;;;;;;5014004;28;20554;-60
2023/07/03 01:03:18;;;;;;;2.58;1.90;;;;;;;;;;5009167;28;20458;-60
2023/07/03 01:05:47;;;;;;;2.72;2.08;;;;;;;;;;5011157;28;20448;-60
2023/07/03 01:08:15;;;;;;;2.97;2.03;;;;;;;;;;5012864;28;20449;-60
2023/07/03 01:10:43;;;;;;;4.90;1.98;;;;;;;;;;5012533;28;20546;-61
2023/07/03 01:13:13;;;;;;;2.53;1.70;;;;;;;;;;5010775;28;20554;-60
2023/07/03 01:15:42;;;;;;;1.33;1.23;;;;;;;;;;5011722;28;20549;-60
2023/07/03 01:18:10;;;;;;;1.95;1.80;;;;;;;;;;5009353;28;20451;-60
2023/07/03 01:20:43;;;;;;;3.17;1.77;;;;;;;;;;5014674;28;21046;-60
2023/07/03 01:23:20;;;;;;;5.00;1.38;;;;;;;;;;4996033;28;21852;-61
2023/07/03 01:25:49;;;;;;;6.47;1.50;;;;;;;;;;5013193;28;20440;-60
2023/07/03 01:28:19;;;;;;;3.58;1.83;;;;;;;;;;4998047;28;20533;-60
2023/07/03 01:30:46;;;;;;;3.63;2.20;;;;;;;;;;5018495;28;20456;-60
2023/07/03 01:33:17;;;;;;;3.47;1.90;;;;;;;;;;5010201;28;20433;-60
2023/07/03 01:35:48;;;;;;;3.08;1.42;;;;;;;;;;5014000;28;20493;-60
2023/07/03 01:38:17;;;;;;;3.20;1.90;;;;;;;;;;5000693;28;20514;-60
2023/07/03 01:40:45;;;;;;;6.47;2.00;;;;;;;;;;5012857;28;20797;-60
2023/07/03 01:43:15;;;;;;;3.55;1.88;;;;;;;;;;5010882;28;20501;-60
2023/07/03 01:45:44;;;;;;;3.92;2.22;;;;;;;;;;5015153;28;20438;-60
2023/07/03 01:48:11;;;;;;;5.28;1.92;;;;;;;;;;5008935;28;20434;-60
2023/07/03 01:50:39;;;;;;;2.10;2.00;;;;;;;;;;5015874;28;20515;-60
2023/07/03 01:53:10;;;;;;;3.88;1.90;;;;;;;;;;5009323;28;21111;-60
2023/07/03 01:55:47;;;;;;;1.90;1.70;;;;;;;;;;5009820;28;20442;-60
2023/07/03 01:58:29;;;;;;;9.68;2.13;;;;;;;;;;5008895;28;20520;-60
2023/07/03 02:01:02;;;;;;;4.80;2.65;;;;;;;;;;5012535;28;20486;-60
2023/07/03 02:03:59;;;;;;;2.35;2.00;;;;;;;;;;5012088;28;20432;-61
2023/07/03 02:06:33;;;;;;;5.60;2.25;;;;;;;;;;4971002;28;20445;-60
2023/07/03 02:09:02;;;;;;;3.58;1.92;;;;;;;;;;4976728;28;21322;-60
2023/07/03 02:11:30;;;;;;;3.45;2.40;;;;;;;;;;4971662;28;21288;-60
2023/07/03 02:13:57;;;;;;;4.03;1.70;;;;;;;;;;4971850;28;20426;-60
2023/07/03 02:16:24;;;;;;;4.53;1.73;;;;;;;;;;4970916;28;20453;-60
2023/07/03 02:18:51;;;;;;;3.20;1.80;;;;;;;;;;4975665;28;20485;-60
2023/07/03 02:21:18;;;;;;;3.67;2.20;;;;;;;;;;4971601;28;20501;-60
2023/07/03 02:23:49;;;;;;;2.35;1.67;;;;;;;;;;4973559;28;20477;-60
2023/07/03 02:26:16;;;;;;;5.82;2.25;;;;;;;;;;4970224;28;20877;-60
2023/07/03 02:28:44;;;;;;;2.38;1.92;;;;;;;;;;4972500;28;20524;-60
2023/07/03 02:31:11;;;;;;;3.60;2.03;;;;;;;;;;4967558;28;21113;-60
2023/07/03 02:33:38;;;;;;;1.85;1.02;;;;;;;;;;4971866;28;20420;-60
2023/07/03 02:36:06;;;;;;;1.92;1.73;;;;;;;;;;4968620;28;20457;-60
2023/07/03 02:38:33;;;;;;;1.63;1.33;;;;;;;;;;4976030;28;20952;-60
2023/07/03 02:41:02;;;;;;;7.50;1.80;;;;;;;;;;4969647;28;20563;-60
2023/07/03 02:43:30;;;;;;;4.18;1.83;;;;;;;;;;5000807;28;20438;-60
2023/07/03 02:46:04;;;;;;;6.03;1.87;;;;;;;;;;5007322;28;20439;-60
2023/07/03 02:48:31;;;;;;;4.28;2.17;;;;;;;;;;5014015;28;20466;-61
2023/07/03 02:51:01;;;;;;;3.88;1.95;;;;;;;;;;5010824;28;20438;-60
2023/07/03 02:53:28;;;;;;;2.67;1.70;;;;;;;;;;5010998;28;20466;-61
2023/07/03 02:55:56;;;;;;;10.00;3.35;;;;;;;;;;5007488;28;20428;-60
2023/07/03 02:58:24;;;;;;;4.70;2.40;;;;;;;;;;5012378;28;20514;-60
2023/07/03 03:00:51;;;;;;;3.28;1.88;;;;;;;;;;5014292;28;20522;-60
2023/07/03 03:03:19;;;;;;;2.08;1.35;;;;;;;;;;5012821;28;20448;-61
2023/07/03 03:05:46;;;;;;;4.72;1.55;;;;;;;;;;4997744;28;20447;-60
2023/07/03 03:08:13;;;;;;;3.08;1.77;;;;;;;;;;5013046;28;20481;-60
2023/07/03 03:10:40;;;;;;;4.07;1.85;;;;;;;;;;5013476;28;20485;-60
2023/07/03 03:13:07;;;;;;;2.28;2.00;;;;;;;;;;5014097;28;20938;-61
2023/07/03 03:15:35;;;;;;;5.13;1.85;;;;;;;;;;5012562;28;20437;-60
2023/07/03 03:18:03;;;;;;;2.17;1.65;;;;;;;;;;5011078;28;20508;-60
2023/07/03 03:20:30;;;;;;;5.05;2.40;;;;;;;;;;5012928;28;20453;-65
2023/07/03 03:22:57;;;;;;;2.42;2.22;;;;;;;;;;5008604;28;20775;-60
2023/07/03 03:25:25;;;;;;;2.08;1.35;;;;;;;;;;5013215;28;20445;-60
2023/07/03 03:27:52;;;;;;;2.22;2.00;;;;;;;;;;5013992;28;20439;-60
2023/07/03 03:30:20;;;;;;;6.07;1.63;;;;;;;;;;5008557;28;20439;-60
2023/07/03 03:32:47;;;;;;;7.70;2.60;;;;;;;;;;4997605;28;20441;-60
2023/07/03 03:35:15;;;;;;;2.13;1.92;;;;;;;;;;5015841;28;20429;-60
2023/07/03 03:37:42;;;;;;;2.17;1.45;;;;;;;;;;5018425;28;20443;-60
2023/07/03 03:40:09;;;;;;;7.63;2.38;;;;;;;;;;5017877;28;20434;-60
2023/07/03 03:42:36;;;;;;;1.90;1.70;;;;;;;;;;5018084;28;20483;-61
2023/07/03 03:45:04;;;;;;;1.40;1.30;;;;;;;;;;5017901;28;20438;-60
2023/07/03 03:47:32;;;;;;;4.05;1.60;;;;;;;;;;5017559;28;21009;-65
2023/07/03 03:50:01;;;;;;;6.00;1.95;;;;;;;;;;5016582;28;20446;-60
2023/07/03 03:52:28;;;;;;;2.83;1.60;;;;;;;;;;5015521;28;20429;-61
2023/07/03 03:54:55;;;;;;;4.70;1.63;;;;;;;;;;5015434;28;20452;-61
2023/07/03 03:57:27;;;;;;;4.45;1.42;;;;;;;;;;5016220;28;20565;-61
2023/07/03 03:59:54;;;;;;;3.80;2.08;;;;;;;;;;5014104;28;20433;-61
2023/07/03 04:02:22;;;;;;;2.67;2.30;;;;;;;;;;5016443;28;20445;-62
2023/07/03 04:04:49;;;;;;;2.65;2.20;;;;;;;;;;5016112;28;20447;-61
2023/07/03 04:07:17;;;;;;;2.30;2.13;;;;;;;;;;5013829;28;20430;-61
2023/07/03 04:09:44;;;;;;;3.03;1.60;;;;;;;;;;5016076;28;20827;-61
2023/07/03 04:12:11;;;;;;;4.60;1.90;;;;;;;;;;5017934;28;20443;-60
2023/07/03 04:14:38;;;;;;;4.13;1.83;;;;;;;;;;5012721;28;20518;-60
2023/07/03 04:17:08;;;;;;;2.33;1.88;;;;;;;;;;5014739;28;20437;-60
2023/07/03 04:19:36;;;;;;;3.42;1.85;;;;;;;;;;5015519;28;20447;-60
2023/07/03 04:22:03;;;;;;;2.70;1.40;;;;;;;;;;5018835;28;20439;-61
2023/07/03 04:24:30;;;;;;;2.03;1.52;;;;;;;;;;5013211;28;20464;-61
2023/07/03 04:26:58;;;;;;;2.60;1.80;;;;;;;;;;5011748;28;20431;-61
2023/07/03 04:29:26;;;;;;;4.23;1.93;;;;;;;;;;5009855;28;20435;-61
2023/07/03 04:31:53;;;;;;;5.80;2.03;;;;;;;;;;5014411;28;20825;-64
2023/07/03 04:34:21;;;;;;;3.90;2.10;;;;;;;;;;5014083;28;20431;-60
2023/07/03 04:36:48;;;;;;;3.90;2.22;;;;;;;;;;4994377;28;20825;-60
2023/07/03 04:39:15;;;;;;;3.38;1.58;;;;;;;;;;5005267;28;20470;-61
2023/07/03 04:41:43;;;;;;;2.47;1.15;;;;;;;;;;5013892;28;20443;-61
2023/07/03 04:44:12;;;;;;;2.23;2.00;;;;;;;;;;5012149;28;20450;-60
2023/07/03 04:46:40;;;;;;;4.40;2.50;;;;;;;;;;5016711;28;20443;-61
2023/07/03 04:49:08;;;;;;;5.00;1.92;;;;;;;;;;5016084;28;21016;-61
2023/07/03 04:51:36;;;;;;;10.32;2.13;;;;;;;;;;5010967;28;20435;-61
2023/07/03 04:54:03;;;;;;;1.88;1.77;;;;;;;;;;5012291;28;20435;-60
2023/07/03 04:56:32;;;;;;;6.30;1.67;;;;;;;;;;5015561;28;20495;-60
2023/07/03 04:58:59;;;;;;;1.77;1.10;;;;;;;;;;5011539;28;20505;-60
2023/07/03 05:01:29;;;;;;;1.80;1.50;;;;;;;;;;5013686;28;20999;-60
2023/07/03 05:03:57;;;;;;;3.40;1.80;;;;;;;;;;5008384;28;20453;-60
2023/07/03 05:06:25;;;;;;;1.33;1.27;;;;;;;;;;5010553;28;20433;-60
2023/07/03 05:08:53;;;;;;;2.83;1.42;;;;;;;;;;5011456;28;20926;-60
2023/07/03 05:11:20;;;;;;;1.70;1.45;;;;;;;;;;5015027;28;20521;-60
2023/07/03 05:13:47;;;;;;;6.35;1.92;;;;;;;;;;5019057;28;20504;-61
2023/07/03 05:16:15;;;;;;;2.85;1.45;;;;;;;;;;5013198;28;20423;-60
2023/07/03 05:18:43;;;;;;;4.78;1.52;;;;;;;;;;5010733;28;20423;-61
2023/07/03 05:21:11;;;;;;;10.95;1.55;;;;;;;;;;5013968;28;20431;-60
2023/07/03 05:23:39;;;;;;;4.40;1.10;;;;;;;;;;5014118;28;20526;-60
2023/07/03 05:26:07;;;;;;;3.83;2.00;;;;;;;;;;5010136;28;20423;-60
2023/07/03 05:28:34;;;;;;;1.60;1.50;;;;;;;;;;5002332;28;20444;-60
2023/07/03 05:31:04;;;;;;;3.57;2.07;;;;;;;;;;4999711;28;20781;-60
2023/07/03 05:33:32;;;;;;;3.27;1.97;;;;;;;;;;5011018;28;20435;-60
2023/07/03 05:36:00;;;;;;;3.93;1.57;;;;;;;;;;5012270;28;20457;-60
2023/07/03 05:38:28;;;;;;;1.98;1.35;;;;;;;;;;5005187;28;20434;-60
2023/07/03 05:40:56;;;;;;;5.07;1.48;;;;;;;;;;5010438;28;20438;-61
2023/07/03 05:43:25;;;;;;;1.60;1.50;;;;;;;;;;4989066;28;21173;-61
2023/07/03 05:45:53;;;;;;;2.08;1.13;;;;;;;;;;5011106;28;20466;-60
2023/07/03 05:48:20;;;;;;;2.10;1.43;;;;;;;;;;5004988;28;20438;-60
2023/07/03 05:50:48;;;;;;;2.20;1.30;;;;;;;;;;5007662;28;20519;-60
2023/07/03 05:53:15;;;;;;;2.15;1.92;;;;;;;;;;5010332;28;20434;-60
2023/07/03 05:55:43;;;;;;;5.43;1.17;;;;;;;;;;5015636;28;20426;-60
2023/07/03 05:58:11;;;;;;;4.13;1.83;;;;;;;;;;4991316;28;20435;-60
2023/07/03 06:00:41;;;;;;;4.22;1.48;;;;;;;;;;5012450;28;22543;-60
2023/07/03 06:03:11;;;;;;;2.55;1.52;;;;;;;;;;5012350;28;20609;-60
2023/07/03 06:05:41;;;;;;;5.30;1.83;;;;;;;;;;5008562;28;20469;-59
2023/07/03 06:08:08;;;;;;;3.23;1.50;;;;;;;;;;5006899;28;21296;-60
2023/07/03 06:10:36;;;;;;;3.57;2.00;;;;;;;;;;5007281;28;21503;-60
2023/07/03 06:13:04;;;;;;;2.78;1.65;;;;;;;;;;5007569;28;20435;-60
2023/07/03 06:15:34;;;;;;;3.45;1.52;;;;;;;;;;5011108;28;20435;-60
2023/07/03 06:18:05;;;;;;;3.80;2.05;;;;;;;;;;5007316;28;20535;-60
2023/07/03 06:20:33;;;;;;;0.90;0.90;;;;;;;;;;5011187;28;20434;-60
2023/07/03 06:23:00;;;;;;;2.00;1.05;;;;;;;;;;5008093;28;20458;-59
2023/07/03 06:25:28;;;;;;;1.40;1.13;;;;;;;;;;5011073;28;20453;-60
2023/07/03 06:27:55;;;;;;;1.00;1.00;;;;;;;;;;5009085;28;20485;-59
2023/07/03 06:30:22;;;;;;;2.35;1.13;;;;;;;;;;5012384;28;21032;-59
2023/07/03 06:32:49;;;;;;;3.65;1.13;;;;;;;;;;5010439;28;21672;-59
2023/07/03 06:35:19;;;;;;;3.08;1.27;;;;;;;;;;5009306;28;20434;-60
2023/07/03 06:37:46;;;;;;;4.07;1.08;;;;;;;;;;5010018;28;20474;-59
2023/07/03 06:40:15;;;;;;;0.95;0.95;;;;;;;;;;5013067;28;20530;-59
2023/07/03 06:42:43;;;;;;;1.40;0.80;;;;;;;;;;5010226;28;20488;-59
2023/07/03 06:45:10;;;;;;;3.50;1.08;;;;;;;;;;5013386;28;20431;-59
2023/07/03 06:47:38;;;;;;;1.70;1.00;;;;;;;;;;5006498;28;20512;-60
2023/07/03 06:50:06;;;;;;;0.77;0.77;;;;;;;;;;5011230;28;20497;-59
2023/07/03 06:52:35;;;;;;;1.55;1.10;;;;;;;;;;5009892;28;20446;-60
2023/07/03 06:55:02;;;;;;;1.05;0.75;;;;;;;;;;5011473;28;20551;-59
2023/07/03 06:57:30;;;;;;;3.15;1.20;;;;;;;;;;5006857;28;20907;-59
2023/07/03 06:59:59;;;;;;;1.48;0.90;;;;;;;;;;5008995;28;20426;-59
2023/07/03 07:02:26;;;;;;;3.63;1.10;;;;;;;;;;5007212;28;20438;-59
2023/07/03 07:04:55;;;;;;;2.28;1.00;;;;;;;;;;5017064;28;20432;-59
2023/07/03 07:07:22;;;;;;;1.58;1.27;;;;;;;;;;5010078;28;22632;-59
2023/07/03 07:09:50;;;;;;;1.15;0.80;;;;;;;;;;5019694;28;20428;-59
2023/07/03 07:12:17;;;;;;;1.02;0.98;;;;;;;;;;5009405;28;20530;-60
2023/07/03 07:14:45;;;;;;;4.32;1.70;;;;;;;;;;5017555;28;20514;-60
2023/07/03 07:17:12;;;;;;;1.00;0.70;;;;;;;;;;4994342;28;20448;-60
2023/07/03 07:19:39;;;;;;;2.55;0.70;;;;;;;;;;5015484;28;20514;-60
2023/07/03 07:22:07;;;;;;;0.88;0.70;;;;;;;;;;5012506;28;20478;-60
2023/07/03 07:24:34;;;;;;;5.47;1.17;;;;;;;;;;5015588;28;20520;-59
2023/07/03 07:27:04;;;;;;;2.42;0.93;;;;;;;;;;5012647;28;20488;-60
2023/07/03 07:29:32;;;;;;;1.42;1.00;;;;;;;;;;5016069;28;20517;-60
2023/07/03 07:31:59;;;;;;;2.80;1.20;;;;;;;;;;5013225;28;20436;-60
2023/07/03 07:34:26;;;;;;;0.80;0.70;;;;;;;;;;5015681;28;20430;-59
2023/07/03 07:36:53;;;;;;;5.05;1.40;;;;;;;;;;5012021;28;20467;-60
2023/07/03 07:39:21;;;;;;;0.77;0.77;;;;;;;;;;5013304;28;20816;-60
2023/07/03 07:41:51;;;;;;;1.20;0.50;;;;;;;;;;5008770;28;20431;-59
2023/07/03 07:44:18;;;;;;;2.70;1.00;;;;;;;;;;5010669;28;20490;-59
2023/07/03 07:46:45;;;;;;;0.57;0.57;;;;;;;;;;5011118;28;20439;-62
2023/07/03 07:49:13;;;;;;;3.00;0.85;;;;;;;;;;5016265;28;20553;-61
2023/07/03 07:51:40;;;;;;;2.58;0.80;;;;;;;;;;5013877;28;20518;-63
2023/07/03 07:54:07;;;;;;;1.43;0.67;;;;;;;;;;5017778;28;20431;-63
2023/07/03 07:56:35;;;;;;;1.77;0.75;;;;;;;;;;5014505;28;20427;-62
2023/07/03 07:59:02;;;;;;;2.40;0.88;;;;;;;;;;5015411;28;20446;-62
2023/07/03 08:01:29;;;;;;;2.45;0.70;;;;;;;;;;5016248;28;20598;-63
2023/07/03 08:03:57;;;;;;;4.00;1.30;;;;;;;;;;5015879;28;22116;-63
2023/07/03 08:06:24;;;;;;;1.08;0.88;;;;;;;;;;5014983;28;20434;-63
2023/07/03 08:08:51;;;;;;;0.53;0.53;;;;;;;;;;5016720;28;20449;-64
2023/07/03 08:11:19;;;;;;;0.80;0.80;;;;;;;;;;5015422;28;20442;-63
2023/07/03 08:13:46;;;;;;;3.45;0.85;;;;;;;;;;5001449;28;20434;-63
2023/07/03 08:16:15;;;;;;;0.30;0.30;;;;;;;;;;5013286;28;20513;-63
2023/07/03 08:18:43;;;;;;;1.53;0.73;;;;;;;;;;5015170;28;20481;-65
2023/07/03 08:21:13;;;;;;;0.60;0.60;;;;;;;;;;5013341;28;20438;-63
2023/07/03 08:23:43;;;;;;;1.35;0.82;;;;;;;;;;5016233;28;20534;-63
2023/07/03 08:26:20;;;;;;;2.30;0.98;;;;;;;;;;5010630;28;20439;-63
2023/07/03 08:28:52;;;;;;;2.15;0.80;;;;;;;;;;4997563;28;20484;-64
2023/07/03 08:31:20;;;;;;;1.00;0.90;;;;;;;;;;5015897;28;20443;-64
2023/07/03 08:33:47;;;;;;;2.30;0.85;;;;;;;;;;5016040;28;20922;-63
2023/07/03 08:36:14;;;;;;;1.23;0.90;;;;;;;;;;4994931;28;20483;-63
2023/07/03 08:38:48;;;;;;;1.40;0.80;;;;;;;;;;5014725;28;20422;-63
2023/07/03 08:41:15;;;;;;;1.58;0.88;;;;;;;;;;5011811;28;20466;-63
2023/07/03 08:43:45;;;;;;;1.55;0.60;;;;;;;;;;5019731;28;20881;-64
2023/07/03 08:46:21;;;;;;;0.60;0.60;;;;;;;;;;5015517;28;20455;-64
2023/07/03 08:48:51;;;;;;;1.30;0.70;;;;;;;;;;5014334;28;20437;-62
2023/07/03 08:51:19;;;;;;;0.60;0.50;;;;;;;;;;5012737;28;20475;-63
2023/07/03 08:53:49;;;;;;;1.27;1.10;;;;;;;;;;5015847;28;20426;-63
2023/07/03 08:56:18;;;;;;;4.80;1.40;;;;;;;;;;5011716;28;20901;-62
2023/07/03 08:58:46;;;;;;;0.88;0.57;;;;;;;;;;5014097;28;20916;-63
2023/07/03 09:01:28;;;;;;;3.30;0.80;;;;;;;;;;5014664;28;20497;-62
2023/07/03 09:04:02;;;;;;;0.70;0.47;;;;;;;;;;5018350;28;20435;-63
2023/07/03 09:06:50;;;;;;;2.42;0.85;;;;;;;;;;5017367;28;20440;-63
2023/07/03 09:09:23;;;;;;;0.30;0.30;;;;;;;;;;5013532;28;20435;-63
2023/07/03 09:11:53;;;;;;;0.93;0.75;;;;;;;;;;5015619;28;20434;-63
2023/07/03 09:14:23;;;;;;;1.38;0.93;;;;;;;;;;5014848;28;20431;-64
2023/07/03 09:16:52;;;;;;;1.35;1.00;;;;;;;;;;5015002;28;20559;-63
2023/07/03 09:19:25;;;;;;;3.10;1.30;;;;;;;;;;5012164;28;20461;-64
2023/07/03 09:21:54;;;;;;;1.30;0.50;;;;;;;;;;5016166;28;20434;-63
2023/07/03 09:24:24;;;;;;;1.13;0.60;;;;;;;;;;5014118;28;20439;-63
2023/07/03 09:26:58;;;;;;;0.45;0.45;;;;;;;;;;5015832;28;20441;-63
2023/07/03 09:29:35;;;;;;;2.53;0.60;;;;;;;;;;5011426;28;20588;-63
2023/07/03 09:32:06;;;;;;;2.20;0.70;;;;;;;;;;5014652;28;20535;-63
2023/07/03 09:34:53;;;;;;;0.73;0.73;;;;;;;;;;5009011;28;20431;-61
2023/07/03 09:37:22;;;;;;;3.40;0.50;;;;;;;;;;5015068;28;23076;-62
2023/07/03 09:39:51;;;;;;;0.40;0.40;;;;;;;;;;4995305;28;20569;-63
2023/07/03 09:42:18;;;;;;;0.30;0.30;;;;;;;;;;5017924;28;20427;-63
2023/07/03 09:44:46;;;;;;;0.95;0.47;;;;;;;;;;5013368;28;20507;-62
2023/07/03 09:47:17;;;;;;;2.45;0.65;;;;;;;;;;5015274;28;20433;-62
2023/07/03 09:49:46;;;;;;;1.70;0.98;;;;;;;;;;5008500;28;20805;-63
2023/07/03 09:52:14;;;;;;;0.82;0.82;;;;;;;;;;5012573;28;20435;-63
2023/07/03 09:54:43;;;;;;;0.60;0.53;;;;;;;;;;5011540;28;20502;-63
2023/07/03 09:57:23;;;;;;;1.50;0.68;;;;;;;;;;5015032;28;20446;-63
2023/07/03 09:59:54;;;;;;;3.00;0.75;;;;;;;;;;5010087;28;20470;-63
2023/07/03 10:02:24;;;;;;;0.40;0.40;;;;;;;;;;5013760;28;20432;-62
2023/07/03 10:04:56;;;;;;;5.30;1.25;;;;;;;;;;5010691;28;20512;-63
2023/07/03 10:07:26;;;;;;;2.03;0.82;;;;;;;;;;5016792;28;20419;-63
2023/07/03 10:09:54;;;;;;;4.35;0.73;;;;;;;;;;5009651;28;20435;-62
2023/07/03 10:12:28;;;;;;;1.70;1.00;;;;;;;;;;5020458;28;20431;-62
2023/07/03 10:15:08;;;;;;;2.10;0.60;;;;;;;;;;5010559;28;20438;-63
2023/07/03 10:17:37;;;;;;;0.80;0.80;;;;;;;;;;5014363;28;20967;-63
2023/07/03 10:20:18;;;;;;;1.00;1.00;;;;;;;;;;5009953;28;20483;-63
2023/07/03 10:22:49;;;;;;;0.40;0.40;;;;;;;;;;5014182;28;20516;-61
2023/07/03 10:25:27;;;;;;;0.60;0.60;;;;;;;;;;5009958;28;20518;-63
2023/07/03 10:27:58;;;;;;;2.42;0.60;;;;;;;;;;5017003;28;20541;-63
2023/07/03 10:30:29;;;;;;;0.70;0.50;;;;;;;;;;5013458;28;20442;-63
2023/07/03 10:32:58;;;;;;;0.93;0.90;;;;;;;;;;5017919;28;20470;-63
2023/07/03 10:35:29;;;;;;;2.70;0.90;;;;;;;;;;5006740;28;20430;-63
2023/07/03 10:37:59;;;;;;;0.57;0.57;;;;;;;;;;5015091;28;20436;-64
2023/07/03 10:40:32;;;;;;;0.50;0.50;;;;;;;;;;5018198;28;20510;-63
2023/07/03 10:43:02;;;;;;;1.70;1.40;;;;;;;;;;5017442;28;20432;-63
2023/07/03 10:45:31;;;;;;;1.30;1.08;;;;;;;;;;5024591;28;20530;-62
2023/07/03 10:48:03;;;;;;;1.30;0.60;;;;;;;;;;5026268;28;20438;-63
2023/07/03 10:50:50;;;;;;;0.90;0.60;;;;;;;;;;5018837;28;20559;-64
2023/07/03 10:53:18;;;;;;;3.30;0.93;;;;;;;;;;5016401;28;20442;-62
2023/07/03 10:55:48;;;;;;;2.55;0.80;;;;;;;;;;5021688;28;20983;-61
2023/07/03 10:58:25;;;;;;;2.13;0.95;;;;;;;;;;5002001;28;21232;-64
2023/07/03 11:00:52;;;;;;;0.80;0.80;;;;;;;;;;5032610;28;20440;-63
2023/07/03 11:03:33;;;;;;;1.00;0.80;;;;;;;;;;5014774;28;20472;-62
2023/07/03 11:06:12;;;;;;;2.50;0.80;;;;;;;;;;5023943;28;20466;-64
2023/07/03 11:08:45;;;;;;;0.43;0.43;;;;;;;;;;5014177;28;20521;-63
2023/07/03 11:11:12;;;;;;;1.67;0.67;;;;;;;;;;5020251;28;20443;-64
2023/07/03 11:13:41;;;;;;;0.85;0.50;;;;;;;;;;5015300;28;20426;-60
2023/07/03 11:16:13;;;;;;;0.75;0.75;;;;;;;;;;5018401;28;21108;-63
2023/07/03 11:18:48;;;;;;;0.60;0.60;;;;;;;;;;5021283;28;20430;-64
2023/07/03 11:21:29;;;;;;;2.97;0.80;;;;;;;;;;5015223;28;20450;-64
2023/07/03 11:24:15;;;;;;;0.85;0.80;;;;;;;;;;5020379;28;20462;-64
2023/07/03 11:26:49;;;;;;;1.20;0.43;;;;;;;;;;5015276;28;20529;-62
2023/07/03 11:29:21;;;;;;;2.45;0.70;;;;;;;;;;5020097;28;20423;-63
2023/07/03 11:31:49;;;;;;;2.60;0.50;;;;;;;;;;5018290;28;20465;-63
2023/07/03 11:34:18;;;;;;;0.95;0.85;;;;;;;;;;5015858;28;20504;-62
2023/07/03 11:36:54;;;;;;;1.00;1.00;;;;;;;;;;5021058;28;20512;-63
2023/07/03 11:39:33;;;;;;;2.45;0.70;;;;;;;;;;5001711;28;20425;-62
2023/07/03 11:42:05;;;;;;;3.03;0.70;;;;;;;;;;5016163;28;20588;-62
2023/07/03 11:44:39;;;;;;;1.70;0.82;;;;;;;;;;5011277;28;20505;-62
2023/07/03 11:47:10;;;;;;;1.15;0.70;;;;;;;;;;5013792;28;20442;-63
2023/07/03 11:49:42;;;;;;;1.70;0.52;;;;;;;;;;5017772;28;20924;-63
2023/07/03 11:52:11;;;;;;;0.77;0.77;;;;;;;;;;5017388;28;20492;-64
2023/07/03 11:54:42;;;;;;;1.92;0.77;;;;;;;;;;5001728;28;20437;-64
2023/07/03 11:57:27;;;;;;;1.38;0.77;;;;;;;;;;5005636;28;20431;-63
2023/07/03 12:00:12;;;;;;;0.87;0.87;;;;;;;;;;5014724;28;20426;-64
2023/07/03 12:02:39;;;;;;;2.60;0.60;;;;;;;;;;5011204;28;22483;-62
2023/07/03 12:05:09;;;;;;;0.55;0.55;;;;;;;;;;4991001;28;20523;-64
2023/07/03 12:07:37;;;;;;;4.47;1.23;;;;;;;;;;5016352;28;20438;-62
2023/07/03 12:10:18;;;;;;;0.63;0.52;;;;;;;;;;4998799;28;20439;-62
2023/07/03 12:13:05;;;;;;;0.82;0.82;;;;;;;;;;5015337;28;20463;-62
2023/07/03 12:15:40;;;;;;;0.70;0.47;;;;;;;;;;5012540;28;20446;-63
2023/07/03 12:18:08;;;;;;;1.42;0.73;;;;;;;;;;5011131;28;20429;-62
2023/07/03 12:21:00;;;;;;;1.50;0.70;;;;;;;;;;5014656;28;20461;-63
2023/07/03 12:23:51;;;;;;;0.50;0.50;;;;;;;;;;5016002;28;20913;-62
2023/07/03 12:26:18;;;;;;;0.60;0.60;;;;;;;;;;5013732;28;20443;-63
2023/07/03 12:29:01;;;;;;;0.80;0.63;;;;;;;;;;5010129;28;20507;-63
2023/07/03 12:31:28;;;;;;;1.15;1.05;;;;;;;;;;4999407;28;20988;-61
2023/07/03 12:33:57;;;;;;;1.60;0.73;;;;;;;;;;5019105;28;20432;-63
2023/07/03 12:36:24;;;;;;;1.10;0.70;;;;;;;;;;5018491;28;20758;-64
2023/07/03 12:38:52;;;;;;;0.20;0.20;;;;;;;;;;5017398;28;20461;-63
2023/07/03 12:41:30;;;;;;;0.73;0.70;;;;;;;;;;5014394;28;20448;-65
2023/07/03 12:44:23;;;;;;;4.13;0.43;;;;;;;;;;5018596;28;20464;-63
2023/07/03 12:47:12;;;;;;;0.90;0.45;;;;;;;;;;5019747;28;21509;-63
2023/07/03 12:49:55;;;;;;;2.60;0.70;;;;;;;;;;5017284;28;20477;-64
2023/07/03 12:52:28;;;;;;;3.20;0.70;;;;;;;;;;5015282;28;21050;-62
2023/07/03 12:54:56;;;;;;;0.50;0.50;;;;;;;;;;5015520;28;20462;-65
2023/07/03 12:57:26;;;;;;;1.35;0.68;;;;;;;;;;5016906;28;22984;-63
2023/07/03 12:59:53;;;;;;;0.70;0.70;;;;;;;;;;5020462;28;20459;-62
2023/07/03 13:02:22;;;;;;;1.73;0.67;;;;;;;;;;4994311;28;20824;-65
2023/07/03 13:04:54;;;;;;;0.30;0.30;;;;;;;;;;5014191;28;20435;-63
2023/07/03 13:07:21;;;;;;;0.55;0.52;;;;;;;;;;5016328;28;20434;-62
2023/07/03 13:09:48;;;;;;;0.80;0.80;;;;;;;;;;5016454;28;20466;-65
2023/07/03 13:12:18;;;;;;;0.40;0.40;;;;;;;;;;5013561;28;20442;-63
2023/07/03 13:14:59;;;;;;;0.50;0.50;;;;;;;;;;5014625;28;20481;-65
2023/07/03 13:17:30;;;;;;;0.50;0.50;;;;;;;;;;5014179;28;20431;-63
2023/07/03 13:20:16;;;;;;;1.00;0.70;;;;;;;;;;5016249;28;20431;-64
2023/07/03 13:22:47;;;;;;;0.47;0.47;;;;;;;;;;5012128;28;20434;-62
2023/07/03 13:25:33;;;;;;;2.03;1.13;;;;;;;;;;5011988;28;20525;-61
2023/07/03 13:28:07;;;;;;;2.63;0.60;;;;;;;;;;5013468;28;20437;-62
2023/07/03 13:30:37;;;;;;;1.25;0.60;;;;;;;;;;5015075;28;20504;-63
2023/07/03 13:33:07;;;;;;;1.40;1.00;;;;;;;;;;4996466;28;20476;-61
2023/07/03 13:35:46;;;;;;;0.63;0.63;;;;;;;;;;5005690;28;21015;-63
2023/07/03 13:38:18;;;;;;;1.52;0.80;;;;;;;;;;5009216;28;20431;-63
2023/07/03 13:40:51;;;;;;;0.60;0.50;;;;;;;;;;5011385;28;20923;-65
2023/07/03 13:43:23;;;;;;;0.80;0.50;;;;;;;;;;5009562;28;20510;-63
2023/07/03 13:45:55;;;;;;;0.33;0.33;;;;;;;;;;5008747;28;20995;-63
2023/07/03 13:48:25;;;;;;;0.75;0.75;;;;;;;;;;5014174;28;20446;-62
2023/07/03 13:50:53;;;;;;;1.00;0.70;;;;;;;;;;5010837;28;20513;-63
2023/07/03 13:53:21;;;;;;;1.33;0.73;;;;;;;;;;5013299;28;20489;-63
2023/07/03 13:55:48;;;;;;;1.77;0.90;;;;;;;;;;5008746;28;21162;-65
2023/07/03 13:58:16;;;;;;;1.10;0.50;;;;;;;;;;5012122;28;20431;-65
2023/07/03 14:00:43;;;;;;;1.20;0.60;;;;;;;;;;5010768;28;21506;-62
2023/07/03 14:03:15;;;;;;;0.65;0.60;;;;;;;;;;5014907;28;20511;-65
2023/07/03 14:05:43;;;;;;;3.58;0.70;;;;;;;;;;5009892;28;21208;-64
2023/07/03 14:08:12;;;;;;;0.57;0.57;;;;;;;;;;5011759;28;20474;-61
2023/07/03 14:10:40;;;;;;;0.90;0.60;;;;;;;;;;5009702;28;20879;-63
2023/07/03 14:13:08;;;;;;;1.33;0.82;;;;;;;;;;5012525;28;20462;-63
2023/07/03 14:15:35;;;;;;;0.60;0.60;;;;;;;;;;5010796;28;20458;-63
2023/07/03 14:18:03;;;;;;;0.68;0.57;;;;;;;;;;5009095;28;20431;-63
2023/07/03 14:20:30;;;;;;;1.23;0.87;;;;;;;;;;4986418;28;20450;-64
2023/07/03 14:22:58;;;;;;;1.80;0.80;;;;;;;;;;5009511;28;20863;-63
2023/07/03 14:25:25;;;;;;;2.10;0.80;;;;;;;;;;5008740;28;20477;-62
2023/07/03 14:27:52;;;;;;;2.28;0.60;;;;;;;;;;5009833;28;20512;-63
2023/07/03 14:30:20;;;;;;;0.40;0.40;;;;;;;;;;5009513;28;20496;-64
2023/07/03 14:32:47;;;;;;;0.60;0.60;;;;;;;;;;5012060;28;21041;-63
2023/07/03 14:35:22;;;;;;;2.10;1.00;;;;;;;;;;5006898;28;20453;-63
2023/07/03 14:37:49;;;;;;;2.55;0.70;;;;;;;;;;5011693;28;20438;-62
2023/07/03 14:40:21;;;;;;;0.90;0.70;;;;;;;;;;5008238;28;20470;-63
2023/07/03 14:42:49;;;;;;;0.43;0.43;;;;;;;;;;5012225;28;20436;-63
2023/07/03 14:45:16;;;;;;;0.90;0.63;;;;;;;;;;5010477;28;20458;-62
2023/07/03 14:47:44;;;;;;;0.50;0.50;;;;;;;;;;5010122;28;20438;-62
2023/07/03 14:50:12;;;;;;;0.98;0.68;;;;;;;;;;5010737;28;20447;-63
2023/07/03 14:52:43;;;;;;;1.20;0.70;;;;;;;;;;5012756;28;20924;-63
2023/07/03 14:55:14;;;;;;;1.33;0.50;;;;;;;;;;5009702;28;21226;-62
2023/07/03 14:57:41;;;;;;;0.50;0.50;;;;;;;;;;5006281;28;20443;-62
2023/07/03 15:00:09;;;;;;;0.60;0.45;;;;;;;;;;5011764;28;20427;-62